This is the latest recevied weather packets stored in our database for station/object HB9HFD-13. If no packets are shown the sender has not sent any weather packets the latest 10 day(s).
| Time | Temp. | Humidity | Pressure | Rain* | Wind** | Luminosity | Snow |
|---|---|---|---|---|---|---|---|
| 1788128371 | 18.89° C | 78% | 1014.7 hPa | 1.78 mm | - | - | - |
| 1788128071 | 18.89° C | 79% | 1014.6 hPa | 1.78 mm | - | - | - |
| 1788127771 | 18.33° C | 80% | 1014.7 hPa | 1.78 mm | - | - | - |
| 1788127470 | 18.33° C | 84% | 1014.6 hPa | 1.78 mm | - | - | - |
| 1788127170 | 18.33° C | 83% | 1014.5 hPa | 1.78 mm | - | - | - |
| 1788126870 | 18.89° C | 81% | 1014.5 hPa | 1.78 mm | - | - | - |
| 1788126570 | 19.44° C | 78% | 1014.7 hPa | 1.78 mm | - | - | - |
| 1788126269 | 20.56° C | 72% | 1014.6 hPa | 1.78 mm | - | - | - |
| 1788125969 | 22.22° C | 64% | 1015.2 hPa | 0.51 mm | - | - | - |
| 1788125669 | 21.67° C | 62% | 1014.9 hPa | 0 mm | - | - | - |
| 1788125369 | 21.11° C | 65% | 1014.3 hPa | 0 mm | - | - | - |
| 1788125068 | 21.11° C | 66% | 1014 hPa | 0 mm | - | - | - |
| 1788124768 | 21.11° C | 67% | 1013.9 hPa | 0 mm | - | - | - |
| 1788124468 | 21.11° C | 68% | 1013.7 hPa | 0 mm | - | - | - |
| 1788124167 | 20.56° C | 69% | 1013.9 hPa | 0 mm | - | - | - |
| 1788123867 | 20.56° C | 68% | 1013.8 hPa | 0 mm | - | - | - |
| 1788123567 | 20.56° C | 68% | 1013.8 hPa | 0 mm | - | - | - |
| 1788123267 | 20.56° C | 68% | 1013.7 hPa | 0 mm | - | - | - |
| 1788122966 | 20.56° C | 67% | 1013.6 hPa | 0 mm | - | - | - |
| 1788122666 | 20.56° C | 69% | 1013.6 hPa | 0 mm | - | - | - |
| 1788122366 | 20.56° C | 68% | 1013.6 hPa | 0 mm | - | - | - |
| 1788122066 | 20.56° C | 68% | 1013.7 hPa | 0 mm | - | - | - |
| 1788121765 | 20.56° C | 68% | 1013.7 hPa | 0 mm | - | - | - |
| 1788121465 | 21.11° C | 68% | 1013.6 hPa | 0 mm | - | - | - |
| 1788121165 | 21.11° C | 68% | 1013.5 hPa | 0 mm | - | - | - |
* Rain latest hour (hover to see other rain measurements)
** Current wind speed in m/s (hover to see current wind gust speed)